CSX7 weather

Exeter Airport
Sexsmith, Ontario, Canada

Public forecast

Using degrees Celsius for public forecast. Weather courtesy of forecast.io.

Closest aviation weather report (METAR) to Exeter Airport

Closest report is London Airport, 25.6 nm (47.4 km) SE. Retrieved 2020/06/01 17:00 UTC (47 minutes ago):

CYXU 011700Z 28010G18KT 250V340 15SM FEW050 FEW200 19/06 A3023 RMK SC1CI1 SLP239 DENSITY ALT 1300FT

Closest aviation forecast (TAF) to Exeter Airport

Closest forecast is London Airport, 25.6 nm (47.4 km) SE. Retrieved 2020/06/01 12:48 UTC (5 hours ago):

TAF CYXU 011144Z 0112/0212 24005KT P6SM SKC BECMG 0113/0115 26012KT FM020300 21008KT P6SM BKN100 FM020600 22008KT P6SM -SHRA BKN050 RMK NXT FCST BY 011800Z